Tuskahoma, Oklahoma
Current Conditions -  °F | °C
As of 9:53 AM on Friday 28 Nov 2014 (Local Time) from KMLC Reporting Station
Few Clouds Few Clouds  
Wind Chill: 53°   Ceiling: Unl
Heat Index: 53°   Visibility: 10mi
Dew Point: 31°   Wind: 10mph
Humidity: 43%   Direction: 180°S
Pressure: 30.2"   Gusts: 20mph
Location:  34.62°N, 95.28°W
Report Text: KMLC 281553Z AUTO 18009G17KT 10SM FEW110 12/M01 A3020 RMK AO2 PK WND 19027/1530 SLP226 T01171006
Loading
Personal Weather Stations






























Interactive Weather Map New forecast layout! Learn more

10-Day Weather Forecast

Advertisements
Track Severe Weather on mobile